createdAt,value
2023-01-07T00:01:18.015Z,57.10
2023-01-07T00:03:47.723Z,56.60
2023-01-07T00:06:19.657Z,56.50
2023-01-07T00:08:50.255Z,56.50
2023-01-07T00:11:21.189Z,56.60
2023-01-07T00:13:51.099Z,56.60
2023-01-07T00:16:21.960Z,56.50
2023-01-07T00:18:52.175Z,56.40
2023-01-07T00:21:23.586Z,56.50
2023-01-07T00:23:56.084Z,56.30
2023-01-07T00:26:27.351Z,56.40
2023-01-07T00:29:00.123Z,57.20
2023-01-07T00:31:31.113Z,57.10
2023-01-07T00:34:09.329Z,57.00
2023-01-07T00:36:43.035Z,57.00
2023-01-07T00:39:16.119Z,57.10
2023-01-07T00:42:06.494Z,57.10
2023-01-07T00:44:37.648Z,57.30
2023-01-07T00:47:06.396Z,57.10
2023-01-07T00:49:34.695Z,57.20
2023-01-07T00:52:04.538Z,57.30
2023-01-07T00:54:33.073Z,57.40
2023-01-07T00:57:01.462Z,57.40
2023-01-07T00:59:30.379Z,57.50
2023-01-07T01:01:58.801Z,57.40
2023-01-07T01:04:27.325Z,57.40
2023-01-07T01:06:55.713Z,57.40
2023-01-07T01:09:26.491Z,57.50
2023-01-07T01:11:54.863Z,57.60
2023-01-07T01:14:23.453Z,57.60
2023-01-07T01:16:51.702Z,57.60
2023-01-07T01:19:20.078Z,57.80
2023-01-07T01:21:48.701Z,58.60
2023-01-07T01:24:17.413Z,67.80
2023-01-07T01:26:47.245Z,67.60
2023-01-07T01:29:15.613Z,68.70
2023-01-07T01:31:44.125Z,70.40
2023-01-07T01:34:12.604Z,71.00
2023-01-07T01:36:41.045Z,72.80
2023-01-07T01:39:09.553Z,76.40
2023-01-07T01:41:37.972Z,71.70
2023-01-07T01:44:41.391Z,76.10
2023-01-07T01:47:21.799Z,75.80
2023-01-07T01:49:58.737Z,77.80
2023-01-07T01:52:35.840Z,77.40
2023-01-07T01:55:09.133Z,62.30
2023-01-07T01:57:39.525Z,62.40
2023-01-07T02:00:12.485Z,62.50
2023-01-07T02:02:50.240Z,62.20
2023-01-07T02:05:19.621Z,61.90
2023-01-07T02:07:48.005Z,61.60
2023-01-07T02:10:21.322Z,61.40
2023-01-07T02:13:17.317Z,61.10
2023-01-07T02:15:56.986Z,60.80
2023-01-07T02:18:52.977Z,60.90
2023-01-07T02:21:35.318Z,60.50
2023-01-07T02:25:11.346Z,60.40
2023-01-07T02:28:12.463Z,60.20
2023-01-07T02:31:03.965Z,60.00
2023-01-07T02:33:47.022Z,60.20
2023-01-07T02:36:39.764Z,60.20
2023-01-07T02:39:26.065Z,60.40
2023-01-07T02:41:59.994Z,60.60
2023-01-07T02:44:40.022Z,60.60
2023-01-07T02:47:14.916Z,60.90
2023-01-07T02:49:46.997Z,60.90
2023-01-07T02:52:22.903Z,61.00
2023-01-07T02:54:57.308Z,61.00
2023-01-07T02:58:07.941Z,61.10
2023-01-07T03:01:11.199Z,61.00
2023-01-07T03:04:01.517Z,61.00
2023-01-07T03:06:48.723Z,60.90
2023-01-07T03:09:30.354Z,61.20
2023-01-07T03:12:09.659Z,61.30
2023-01-07T03:14:43.588Z,61.20
2023-01-07T03:17:18.812Z,61.20
2023-01-07T03:19:52.155Z,58.80
2023-01-07T03:22:26.031Z,59.10
2023-01-07T03:24:58.104Z,59.20
2023-01-07T03:27:28.884Z,59.40
2023-01-07T03:29:57.837Z,56.90
2023-01-07T03:32:30.853Z,56.90
2023-01-07T03:34:59.719Z,56.80
2023-01-07T03:37:33.834Z,56.90
2023-01-07T03:40:09.843Z,56.90
2023-01-07T03:42:41.372Z,57.00
2023-01-07T03:45:22.187Z,57.00
2023-01-07T03:47:52.717Z,57.00
2023-01-07T03:50:22.687Z,56.90
2023-01-07T03:52:53.631Z,56.90
2023-01-07T03:55:24.502Z,57.00
2023-01-07T03:57:56.334Z,57.00
2023-01-07T04:00:26.246Z,56.90
2023-01-07T04:03:01.368Z,56.90
2023-01-07T04:05:34.381Z,56.90
2023-01-07T04:08:04.197Z,56.90
2023-01-07T04:10:35.790Z,56.90
2023-01-07T04:13:04.113Z,57.00
2023-01-07T04:15:32.584Z,57.00
2023-01-07T04:18:00.938Z,57.50
2023-01-07T04:20:30.179Z,57.00
2023-01-07T04:22:58.446Z,57.10
2023-01-07T04:25:28.205Z,57.10
2023-01-07T04:27:57.307Z,57.10
2023-01-07T04:30:25.751Z,57.10
2023-01-07T04:32:54.957Z,57.10
2023-01-07T04:35:23.761Z,57.00
2023-01-07T04:37:52.228Z,56.80
2023-01-07T04:40:20.565Z,56.80
2023-01-07T04:42:51.017Z,56.90
2023-01-07T04:45:19.464Z,56.90
2023-01-07T04:47:48.540Z,56.80
2023-01-07T04:50:17.248Z,56.90
2023-01-07T04:52:46.467Z,56.80
2023-01-07T04:55:14.771Z,56.90
2023-01-07T04:57:43.576Z,56.80
2023-01-07T05:00:15.959Z,56.80
2023-01-07T05:02:47.194Z,56.80
2023-01-07T05:05:15.509Z,56.80
2023-01-07T05:07:45.230Z,56.90
2023-01-07T05:10:14.571Z,57.00
2023-01-07T05:12:43.421Z,56.90
2023-01-07T05:15:14.820Z,57.00
2023-01-07T05:17:44.383Z,56.90
2023-01-07T05:20:13.615Z,56.90
2023-01-07T05:22:42.192Z,56.90
2023-01-07T05:25:11.715Z,57.00
2023-01-07T05:27:40.195Z,57.00
2023-01-07T05:30:11.850Z,57.00
2023-01-07T05:32:41.622Z,57.00
2023-01-07T05:35:10.538Z,56.90
2023-01-07T05:37:39.316Z,56.90
2023-01-07T05:40:11.125Z,56.90
2023-01-07T05:42:39.864Z,56.80
2023-01-07T05:45:10.065Z,56.80
2023-01-07T05:47:38.380Z,56.80
2023-01-07T05:50:09.150Z,56.90
2023-01-07T05:52:37.504Z,56.90
2023-01-07T05:55:07.255Z,57.10
2023-01-07T05:57:35.764Z,57.00
2023-01-07T06:00:04.420Z,56.90
2023-01-07T06:02:40.235Z,56.90
2023-01-07T06:05:11.351Z,56.90
2023-01-07T06:07:40.004Z,57.10
2023-01-07T06:10:09.103Z,57.10
2023-01-07T06:12:37.431Z,57.10
2023-01-07T06:15:07.461Z,57.00
2023-01-07T06:17:36.284Z,57.00
2023-01-07T06:20:05.516Z,57.10
2023-01-07T06:22:35.199Z,57.10
2023-01-07T06:25:03.583Z,57.40
2023-01-07T06:27:31.990Z,58.10
2023-01-07T06:30:00.300Z,58.40
2023-01-07T06:32:28.608Z,58.50
2023-01-07T06:34:56.965Z,58.90
2023-01-07T06:37:25.238Z,58.80
2023-01-07T06:39:54.919Z,59.00
2023-01-07T06:42:23.196Z,59.10
2023-01-07T06:44:51.458Z,58.90
2023-01-07T06:47:19.743Z,58.90
2023-01-07T06:49:48.093Z,58.70
2023-01-07T06:52:16.416Z,58.50
2023-01-07T06:54:45.936Z,58.30
2023-01-07T06:57:17.303Z,58.20
2023-01-07T06:59:45.673Z,58.20
2023-01-07T07:02:20.151Z,58.40
2023-01-07T07:04:48.591Z,58.70
2023-01-07T07:07:17.461Z,59.50
2023-01-07T07:09:45.956Z,59.40
2023-01-07T07:12:16.023Z,59.00
2023-01-07T07:14:44.430Z,58.70
2023-01-07T07:17:13.132Z,58.30
2023-01-07T07:19:41.451Z,58.00
2023-01-07T07:22:10.016Z,58.00
2023-01-07T07:24:38.416Z,57.90
2023-01-07T07:27:06.705Z,57.90
2023-01-07T07:29:36.337Z,57.80
2023-01-07T07:32:05.014Z,57.60
2023-01-07T07:34:35.194Z,57.70
2023-01-07T07:37:04.239Z,57.70
2023-01-07T07:39:33.623Z,57.50
2023-01-07T07:42:04.665Z,57.60
2023-01-07T07:44:33.117Z,57.60
2023-01-07T07:47:02.787Z,57.50
2023-01-07T07:49:31.317Z,57.50
2023-01-07T07:51:59.593Z,57.40
2023-01-07T07:54:28.458Z,57.40
2023-01-07T07:56:58.331Z,57.30
2023-01-07T07:59:26.832Z,57.30
2023-01-07T08:01:55.165Z,57.40
2023-01-07T08:04:25.104Z,57.40
2023-01-07T08:06:53.496Z,57.40
2023-01-07T08:09:21.873Z,57.60
2023-01-07T08:11:50.169Z,57.30
2023-01-07T08:14:18.443Z,57.30
2023-01-07T08:16:46.731Z,57.30
2023-01-07T08:19:15.769Z,57.30
2023-01-07T08:21:45.447Z,57.30
2023-01-07T08:24:13.816Z,57.30
2023-01-07T08:26:42.172Z,57.30
2023-01-07T08:29:10.532Z,57.30
2023-01-07T08:31:38.946Z,57.30
2023-01-07T08:34:07.492Z,57.30
2023-01-07T08:36:35.813Z,57.20
2023-01-07T08:39:05.647Z,57.30
2023-01-07T08:41:33.945Z,57.20
2023-01-07T08:44:02.196Z,57.20
2023-01-07T08:46:30.578Z,57.20
2023-01-07T08:48:58.869Z,57.20
2023-01-07T08:51:27.160Z,57.20
2023-01-07T08:53:56.502Z,57.90
2023-01-07T08:56:26.140Z,58.10
2023-01-07T08:58:54.453Z,61.10
2023-01-07T09:01:22.883Z,60.90
2023-01-07T09:03:51.353Z,60.60
2023-01-07T09:06:19.753Z,60.00
2023-01-07T09:08:48.096Z,59.80
2023-01-07T09:11:16.541Z,60.00
2023-01-07T09:13:46.188Z,59.70
2023-01-07T09:16:14.566Z,59.80
2023-01-07T09:18:42.951Z,59.80
2023-01-07T09:21:11.365Z,59.60
2023-01-07T09:23:40.378Z,59.10
2023-01-07T09:26:09.426Z,58.70
2023-01-07T09:28:37.695Z,58.40
2023-01-07T09:31:08.617Z,58.20
2023-01-07T09:33:36.928Z,58.20
2023-01-07T09:36:05.951Z,58.10
2023-01-07T09:38:34.296Z,58.00
2023-01-07T09:41:02.681Z,57.80
2023-01-07T09:43:59.759Z,57.80
2023-01-07T09:46:32.177Z,57.80
2023-01-07T09:49:04.207Z,57.80
2023-01-07T09:51:39.019Z,57.70
2023-01-07T09:54:30.652Z,57.70
2023-01-07T09:56:59.223Z,57.70
2023-01-07T09:59:27.886Z,57.50
2023-01-07T10:02:08.818Z,57.50
2023-01-07T10:04:44.098Z,57.60
2023-01-07T10:07:28.815Z,57.70
2023-01-07T10:10:09.885Z,57.90
2023-01-07T10:12:45.208Z,58.00
2023-01-07T10:15:40.325Z,58.20
2023-01-07T10:18:31.532Z,58.20
2023-01-07T10:21:13.581Z,58.30
2023-01-07T10:23:46.002Z,58.30
2023-01-07T10:26:26.109Z,58.40
2023-01-07T10:28:58.760Z,58.40
2023-01-07T10:31:28.570Z,58.40
2023-01-07T10:33:59.644Z,58.40
2023-01-07T10:36:29.922Z,58.30
2023-01-07T10:39:13.662Z,58.30
2023-01-07T10:41:54.159Z,58.30
2023-01-07T10:45:05.544Z,58.30
2023-01-07T10:47:57.205Z,58.10
2023-01-07T10:51:01.365Z,58.10
2023-01-07T10:53:47.569Z,58.10
2023-01-07T10:56:27.401Z,58.10
2023-01-07T10:58:55.953Z,59.30
2023-01-07T11:01:27.989Z,60.60
2023-01-07T11:03:58.752Z,59.60
2023-01-07T11:06:40.462Z,59.10
2023-01-07T11:09:16.020Z,58.70
2023-01-07T11:11:44.887Z,58.40
2023-01-07T11:14:19.032Z,58.20
2023-01-07T11:16:52.726Z,58.10
2023-01-07T11:19:21.907Z,58.10
2023-01-07T11:21:52.177Z,58.30
2023-01-07T11:24:33.433Z,58.60
2023-01-07T11:27:06.542Z,58.60
2023-01-07T11:29:43.532Z,58.60
2023-01-07T11:32:23.063Z,58.70
2023-01-07T11:35:00.790Z,58.80
2023-01-07T11:37:38.306Z,58.90
2023-01-07T11:40:22.651Z,58.90
2023-01-07T11:42:55.282Z,58.70
2023-01-07T11:45:26.379Z,58.20
2023-01-07T11:48:02.579Z,61.20
2023-01-07T11:50:37.395Z,59.60
2023-01-07T11:53:24.790Z,58.70
2023-01-07T11:56:06.392Z,58.70
2023-01-07T11:58:38.440Z,64.60
2023-01-07T12:01:19.614Z,62.70
2023-01-07T12:04:19.906Z,64.80
2023-01-07T12:06:51.990Z,63.70
2023-01-07T12:09:27.848Z,68.20
2023-01-07T12:11:59.797Z,65.10
2023-01-07T12:14:31.315Z,66.00
2023-01-07T12:17:11.506Z,63.30
2023-01-07T12:20:11.741Z,61.60
2023-01-07T12:22:49.586Z,65.10
2023-01-07T12:25:33.759Z,63.80
2023-01-07T12:28:13.882Z,63.60
2023-01-07T12:31:11.740Z,63.60
2023-01-07T12:33:56.129Z,63.50
2023-01-07T12:36:36.382Z,63.60
2023-01-07T12:39:13.790Z,65.30
2023-01-07T12:41:58.085Z,65.30
2023-01-07T12:44:26.811Z,64.30
2023-01-07T12:47:32.687Z,63.80
2023-01-07T12:50:04.046Z,63.60
2023-01-07T12:52:42.323Z,62.90
2023-01-07T12:55:20.782Z,62.70
2023-01-07T12:58:05.296Z,62.40
2023-01-07T13:00:40.657Z,62.20
2023-01-07T13:03:23.281Z,61.90
2023-01-07T13:05:57.564Z,60.90
2023-01-07T13:08:38.418Z,61.20
2023-01-07T13:11:20.101Z,60.90
2023-01-07T13:13:53.624Z,61.60
2023-01-07T13:16:21.926Z,60.70
2023-01-07T13:18:50.309Z,60.30
2023-01-07T13:21:21.270Z,60.30
2023-01-07T13:24:15.383Z,60.20
2023-01-07T13:26:58.948Z,59.50
2023-01-07T13:29:45.421Z,59.60
2023-01-07T13:32:45.501Z,59.70
2023-01-07T13:35:42.546Z,59.60
2023-01-07T13:38:32.041Z,59.70
2023-01-07T13:41:23.494Z,59.60
2023-01-07T13:44:18.783Z,59.60
2023-01-07T13:46:49.045Z,59.60
2023-01-07T13:49:27.490Z,59.60
2023-01-07T13:51:56.301Z,59.70
2023-01-07T13:54:57.718Z,59.80
2023-01-07T13:57:50.891Z,59.80
2023-01-07T14:00:43.021Z,60.20
2023-01-07T14:03:50.328Z,60.10
2023-01-07T14:06:43.415Z,59.60
2023-01-07T14:09:36.880Z,59.60
2023-01-07T14:13:06.525Z,60.00
2023-01-07T14:16:03.069Z,59.90
2023-01-07T14:19:13.952Z,59.70
2023-01-07T14:21:53.109Z,59.60
2023-01-07T14:24:54.174Z,59.60
2023-01-07T14:27:53.805Z,59.90
2023-01-07T14:30:33.791Z,59.30
2023-01-07T14:33:04.800Z,59.30
2023-01-07T14:35:40.695Z,59.20
2023-01-07T14:38:57.771Z,59.10
2023-01-07T14:41:26.320Z,59.00
2023-01-07T14:44:30.308Z,59.00
2023-01-07T14:46:58.656Z,59.00
2023-01-07T14:50:05.505Z,58.90
2023-01-07T14:53:20.981Z,58.10
2023-01-07T14:56:17.737Z,57.70
2023-01-07T14:59:37.479Z,57.40
2023-01-07T15:02:44.630Z,57.30
2023-01-07T15:06:09.717Z,57.60
2023-01-07T15:09:06.649Z,57.80
2023-01-07T15:11:54.285Z,57.50
2023-01-07T15:14:47.942Z,57.90
2023-01-07T15:17:17.662Z,57.90
2023-01-07T15:19:46.259Z,57.90
2023-01-07T15:22:39.656Z,58.00
2023-01-07T15:25:26.989Z,58.00
2023-01-07T15:28:07.673Z,58.00
2023-01-07T15:30:49.475Z,58.10
2023-01-07T15:33:39.246Z,58.10
2023-01-07T15:36:13.661Z,58.10
2023-01-07T15:38:47.947Z,58.10
2023-01-07T15:41:30.932Z,58.00
2023-01-07T15:44:02.127Z,58.10
2023-01-07T15:46:32.747Z,58.00
2023-01-07T15:49:21.234Z,58.00
2023-01-07T15:51:53.273Z,58.00
2023-01-07T15:54:42.441Z,58.00
2023-01-07T15:57:16.472Z,57.90
2023-01-07T15:59:48.479Z,57.90
2023-01-07T16:02:25.042Z,58.60
2023-01-07T16:04:55.562Z,59.10
2023-01-07T16:07:28.702Z,59.10
2023-01-07T16:09:58.620Z,59.20
2023-01-07T16:12:37.352Z,59.50
2023-01-07T16:15:25.447Z,59.50
2023-01-07T16:17:54.526Z,59.40
2023-01-07T16:20:29.386Z,59.10
2023-01-07T16:23:19.196Z,60.50
2023-01-07T16:25:51.750Z,59.60
2023-01-07T16:28:24.774Z,58.70
2023-01-07T16:30:53.704Z,58.60
2023-01-07T16:33:25.493Z,59.10
2023-01-07T16:35:57.054Z,59.70
2023-01-07T16:38:26.317Z,59.50
2023-01-07T16:40:55.374Z,59.60
2023-01-07T16:43:43.467Z,59.80
2023-01-07T16:46:23.657Z,60.30
2023-01-07T16:49:27.809Z,59.60
2023-01-07T16:52:05.972Z,58.10
2023-01-07T16:54:37.365Z,57.70
2023-01-07T16:57:19.418Z,56.80
2023-01-07T16:59:53.956Z,56.20
2023-01-07T17:02:31.796Z,56.10
2023-01-07T17:05:18.458Z,55.60
2023-01-07T17:07:49.303Z,56.10
2023-01-07T17:10:26.035Z,56.20
2023-01-07T17:13:02.138Z,56.30
2023-01-07T17:15:39.406Z,56.20
2023-01-07T17:18:30.327Z,55.60
2023-01-07T17:21:00.795Z,55.40
2023-01-07T17:23:48.711Z,55.40
2023-01-07T17:26:23.426Z,55.70
2023-01-07T17:28:54.688Z,55.90
2023-01-07T17:31:25.438Z,56.10
2023-01-07T17:33:54.700Z,56.30
2023-01-07T17:36:25.418Z,56.40
2023-01-07T17:38:54.191Z,56.60
2023-01-07T17:41:41.816Z,56.70
2023-01-07T17:44:12.918Z,56.70
2023-01-07T17:46:43.592Z,56.60
2023-01-07T17:49:12.685Z,56.20
2023-01-07T17:51:43.196Z,55.90
2023-01-07T17:54:21.080Z,55.40
2023-01-07T17:56:49.505Z,55.30
2023-01-07T17:59:20.256Z,55.50
2023-01-07T18:01:50.807Z,55.80
2023-01-07T18:04:21.392Z,56.10
2023-01-07T18:06:49.699Z,56.20
2023-01-07T18:09:18.069Z,56.60
2023-01-07T18:12:04.825Z,57.00
2023-01-07T18:14:33.305Z,57.20
2023-01-07T18:17:02.971Z,57.30
2023-01-07T18:19:31.394Z,57.50
2023-01-07T18:21:59.700Z,57.70
2023-01-07T18:24:28.089Z,58.10
2023-01-07T18:26:56.758Z,58.90
2023-01-07T18:29:25.268Z,59.80
2023-01-07T18:31:53.743Z,66.60
2023-01-07T18:34:23.661Z,68.30
2023-01-07T18:36:53.388Z,66.90
2023-01-07T18:39:21.750Z,69.20
2023-01-07T18:41:50.987Z,62.30
2023-01-07T18:44:19.665Z,62.80
2023-01-07T18:46:48.265Z,63.10
2023-01-07T18:49:16.969Z,67.90
2023-01-07T18:51:48.697Z,63.20
2023-01-07T18:54:17.697Z,58.10
2023-01-07T18:56:46.712Z,58.30
2023-01-07T18:59:15.245Z,58.20
2023-01-07T19:01:43.736Z,57.90
2023-01-07T19:04:12.195Z,57.80
2023-01-07T19:06:40.584Z,57.80
2023-01-07T19:09:10.264Z,57.70
2023-01-07T19:11:39.267Z,57.90
2023-01-07T19:14:07.557Z,57.90
2023-01-07T19:16:38.288Z,57.90
2023-01-07T19:19:07.526Z,57.50
2023-01-07T19:21:35.887Z,57.60
2023-01-07T19:24:04.645Z,57.50
2023-01-07T19:26:35.165Z,57.90
2023-01-07T19:29:04.274Z,57.90
2023-01-07T19:31:32.677Z,57.90
2023-01-07T19:34:02.747Z,58.00
2023-01-07T19:36:31.594Z,57.80
2023-01-07T19:38:59.854Z,58.00
2023-01-07T19:41:28.686Z,58.10
2023-01-07T19:44:02.040Z,58.00
2023-01-07T19:46:33.370Z,58.00
2023-01-07T19:49:01.850Z,58.30
2023-01-07T19:51:30.145Z,58.30
2023-01-07T19:53:58.510Z,58.30
2023-01-07T19:56:27.122Z,58.40
2023-01-07T19:58:55.704Z,58.40
2023-01-07T20:01:26.760Z,58.70
2023-01-07T20:03:56.065Z,58.60
2023-01-07T20:06:27.391Z,58.60
2023-01-07T20:08:57.298Z,58.80
2023-01-07T20:11:26.278Z,58.90
2023-01-07T20:13:54.631Z,59.00
2023-01-07T20:16:25.290Z,59.00
2023-01-07T20:18:55.993Z,60.50
2023-01-07T20:21:27.144Z,60.20
2023-01-07T20:23:56.034Z,60.00
2023-01-07T20:26:27.001Z,60.00
2023-01-07T20:28:55.991Z,59.90
2023-01-07T20:31:28.951Z,60.00
2023-01-07T20:33:57.782Z,59.90
2023-01-07T20:36:28.661Z,59.90
2023-01-07T20:38:57.380Z,59.90
2023-01-07T20:41:28.205Z,60.00
2023-01-07T20:43:58.501Z,60.30
2023-01-07T20:46:30.607Z,60.00
2023-01-07T20:48:59.532Z,60.10
2023-01-07T20:51:28.331Z,59.90
2023-01-07T20:53:56.664Z,60.00
2023-01-07T20:56:26.199Z,60.20
2023-01-07T20:58:57.320Z,60.00
2023-01-07T21:01:26.959Z,60.50
2023-01-07T21:03:55.523Z,60.20
2023-01-07T21:06:24.255Z,60.20
2023-01-07T21:08:52.597Z,60.00
2023-01-07T21:11:23.066Z,60.40
2023-01-07T21:13:52.195Z,60.30
2023-01-07T21:16:20.963Z,60.20
2023-01-07T21:18:50.814Z,60.80
2023-01-07T21:21:23.899Z,60.20
2023-01-07T21:23:53.019Z,59.80
2023-01-07T21:26:21.966Z,60.00
2023-01-07T21:28:52.919Z,60.10
2023-01-07T21:31:21.260Z,60.80
2023-01-07T21:33:53.963Z,60.30
2023-01-07T21:36:23.052Z,60.40
2023-01-07T21:38:56.500Z,59.80
2023-01-07T21:41:26.135Z,60.00
2023-01-07T21:43:54.613Z,59.80
2023-01-07T21:46:23.557Z,59.80
2023-01-07T21:48:53.571Z,59.90
2023-01-07T21:51:24.287Z,59.90
2023-01-07T21:53:55.609Z,59.60
2023-01-07T21:56:25.937Z,59.70
2023-01-07T21:58:54.360Z,59.10
2023-01-07T22:01:28.213Z,58.90
2023-01-07T22:04:02.007Z,58.90
2023-01-07T22:06:33.336Z,59.30
2023-01-07T22:09:05.288Z,60.00
2023-01-07T22:11:35.168Z,60.00
2023-01-07T22:14:04.131Z,66.80
2023-01-07T22:16:34.084Z,62.40
2023-01-07T22:19:04.841Z,61.30
2023-01-07T22:21:34.213Z,61.80
2023-01-07T22:24:02.884Z,61.20
2023-01-07T22:26:31.474Z,61.00
2023-01-07T22:29:03.392Z,60.80
2023-01-07T22:31:36.382Z,60.50
2023-01-07T22:34:07.755Z,60.20
2023-01-07T22:36:43.650Z,60.20
2023-01-07T22:39:18.230Z,60.40
2023-01-07T22:41:47.570Z,60.10
2023-01-07T22:44:22.571Z,60.10
2023-01-07T22:46:53.170Z,60.00
2023-01-07T22:49:28.407Z,60.30
2023-01-07T22:51:57.200Z,60.10
2023-01-07T22:54:27.222Z,60.20
2023-01-07T22:56:56.098Z,60.10
2023-01-07T22:59:24.516Z,60.10
2023-01-07T23:01:53.099Z,59.80
2023-01-07T23:04:22.851Z,59.90
2023-01-07T23:06:51.264Z,59.90
2023-01-07T23:09:20.039Z,60.00
2023-01-07T23:11:51.882Z,59.90
2023-01-07T23:14:23.959Z,59.90
2023-01-07T23:16:53.656Z,59.90
2023-01-07T23:19:23.803Z,60.00
2023-01-07T23:21:55.004Z,60.00
2023-01-07T23:24:24.248Z,59.80
2023-01-07T23:26:54.941Z,59.80
2023-01-07T23:29:24.061Z,59.80
2023-01-07T23:31:53.073Z,59.60
2023-01-07T23:34:23.026Z,59.70
2023-01-07T23:36:51.502Z,59.80
2023-01-07T23:39:19.912Z,59.70
2023-01-07T23:41:48.568Z,59.90
2023-01-07T23:44:17.263Z,59.80
2023-01-07T23:46:45.704Z,59.80
2023-01-07T23:49:14.232Z,59.80
2023-01-07T23:51:44.117Z,59.50
2023-01-07T23:54:12.748Z,60.00
2023-01-07T23:56:41.268Z,60.00
2023-01-07T23:59:11.045Z,60.10
